Marui Maru — JD2662 — position and weather

sailwx.info

Track history (hours):
 
Tides and Currents Weather Stations Pressure Air Temp Water Temp Dewpoint Dewpoint Depression Visibility Wind Speed Wind Dir Waves Ship Positions

Marui Maru

Last reported at 2017-Dec-09 22:22 UTC. Time now 2017-Dec-12 15:54 UTC.
Position N 33°60' E 132°45'.

Length 74 m.

Type: Cargo ship. MMSI: 431000566.

Date/timePositionNaut miles runAvg speedWind from/ knotsBaromVisibWave heightAir tempDewpointWater temp
2017-Dec-09 22:22N 33°60' E 132°45'68 4.4
2017-Dec-09 06:49N 33°18' E 131°40'4 9.3
2017-Dec-09 06:25N 33°22' E 131°42'1 1.1
2017-Dec-09 05:12N 33°23' E 131°42'0 0.0
2017-Dec-09 04:48N 33°23' E 131°42'0 0.0
2017-Dec-09 04:24N 33°23' E 131°42'0 0.0
2017-Dec-09 04:00N 33°23' E 131°42'0 0.0
2017-Dec-09 03:30N 33°23' E 131°42'0 0.0
2017-Dec-09 03:00N 33°23' E 131°42'0 0.0
2017-Dec-08 23:30N 33°23' E 131°42'0 0.0
2017-Dec-08 22:54N 33°23' E 131°42'0 0.0
2017-Dec-08 22:30N 33°23' E 131°42'0 0.0
2017-Dec-08 22:00N 33°23' E 131°42'0 0.0
2017-Dec-08 18:00N 33°23' E 131°42'0 0.0
2017-Dec-08 17:24N 33°23' E 131°42'0 0.0
2017-Dec-08 15:18N 33°23' E 131°42'0 0.1
2017-Dec-08 14:48N 33°23' E 131°42'0 0.1
2017-Dec-08 14:29N 33°23' E 131°42'0 0.0
2017-Dec-08 13:48N 33°23' E 131°42'0 0.0
2017-Dec-08 13:30N 33°23' E 131°42'0 0.0
2017-Dec-08 10:48N 33°23' E 131°42'0 0.0
2017-Dec-08 10:18N 33°23' E 131°42'0 0.0
2017-Dec-08 09:54N 33°23' E 131°42'7 4.7
2017-Dec-08 08:29N 33°29' E 131°46'2910.7
2017-Dec-08 05:45N 33°57' E 131°55'42 1.7
2017-Dec-07 05:21N 33°16' E 131°40'3 7.5
2017-Dec-07 04:56N 33°20' E 131°40'4 2.8
2017-Dec-07 03:41N 33°23' E 131°42'0 0.0
2017-Dec-07 03:17N 33°23' E 131°42'0 0.0
2017-Dec-07 02:59N 33°23' E 131°42'0 0.0
2017-Dec-07 01:41N 33°23' E 131°42'0 0.0
2017-Dec-07 01:29N 33°23' E 131°42'0 0.0
2017-Dec-07 00:47N 33°23' E 131°42'0 0.0
2017-Dec-07 00:23N 33°23' E 131°42'  
2017-Dec-04 06:39N 34°15' E 135°07'0 0.0
2017-Dec-04 03:51N 34°15' E 135°07'0 0.2
2017-Dec-04 03:30N 34°15' E 135°07'0 0.0
2017-Dec-04 01:27N 34°15' E 135°07'0 0.0
2017-Dec-03 19:18N 34°15' E 135°07'0 0.2
2017-Dec-03 19:00N 34°15' E 135°07'0 0.1
2017-Dec-03 18:24N 34°15' E 135°07'0 0.0
2017-Dec-03 18:00N 34°15' E 135°07'0 0.0
2017-Dec-03 14:09N 34°15' E 135°07'0 0.3
2017-Dec-03 13:57N 34°15' E 135°07'1 2.4
2017-Dec-03 13:30N 34°14' E 135°06'4 9.0
2017-Dec-03 13:00N 34°15' E 135°00'510.3
2017-Dec-03 12:30N 34°20' E 134°60'611.3
2017-Dec-03 12:00N 34°26' E 135°01'611.0
2017-Dec-03 11:30N 34°31' E 135°02'5 9.3
2017-Dec-03 11:00N 34°36' E 135°03'4 8.1
2017-Dec-03 10:30N 34°36' E 134°58'5 9.3
2017-Dec-03 10:00N 34°38' E 134°52'112 2.6
2017-Dec-01 15:22N 33°60' E 132°45'4 9.5
2017-Dec-01 14:58N 33°57' E 132°42'61 3.7
2017-Nov-30 22:16N 33°21' E 131°43'911.8
2017-Nov-30 21:29N 33°28' E 131°49'5011.4
2017-Nov-30 17:06N 33°56' E 132°39'313.6
2017-Nov-30 16:55N 33°57' E 132°42'9711.6
2017-Nov-30 08:33N 34°29' E 134°33'112.8
2017-Nov-30 08:29N 34°29' E 134°34'612.9
2017-Nov-30 08:00N 34°31' E 134°41'713.1
2017-Nov-30 07:28N 34°34' E 134°49'714.0
2017-Nov-30 07:00N 34°37' E 134°56'611.9
2017-Nov-30 06:30N 34°36' E 135°03'611.7
2017-Nov-30 06:00N 34°35' E 135°10'611.9
2017-Nov-30 05:30N 34°34' E 135°17'611.6
2017-Nov-30 05:00N 34°32' E 135°24'1 2.6
2017-Nov-30 04:28N 34°31' E 135°24'0 0.0
2017-Nov-30 03:58N 34°31' E 135°24'0 0.0
2017-Nov-30 03:28N 34°31' E 135°24'0 0.0
2017-Nov-30 02:58N 34°31' E 135°24'0 0.0
2017-Nov-30 02:28N 34°31' E 135°24'0 0.0
2017-Nov-30 01:58N 34°31' E 135°24'0 0.0
2017-Nov-30 01:28N 34°31' E 135°24'0 0.0
2017-Nov-30 00:58N 34°31' E 135°24'0 0.0
2017-Nov-30 00:28N 34°31' E 135°24'0 0.0
2017-Nov-29 23:58N 34°31' E 135°24'0 0.0
2017-Nov-29 23:22N 34°31' E 135°24'0 0.0
2017-Nov-29 22:58N 34°31' E 135°24'2 3.9
2017-Nov-29 22:31N 34°32' E 135°24'  
Track history (hours):
 
Tides and Currents Weather Stations Pressure Air Temp Water Temp Dewpoint Dewpoint Depression Visibility Wind Speed Wind Dir Waves Ship Positions

Marui Maru

Last reported at 2017-Dec-09 22:22 UTC. Time now 2017-Dec-12 15:54 UTC.
Position N 33°60' E 132°45'.

Length 74 m.

Type: Cargo ship. MMSI: 431000566.

Date/timePositionNaut miles runAvg speedWind from/ knotsBaromVisibWave heightAir tempDewpointWater temp
2017-Dec-09 22:22N 33°60' E 132°45'68 4.4
2017-Dec-09 06:49N 33°18' E 131°40'4 9.3
2017-Dec-09 06:25N 33°22' E 131°42'1 1.1
2017-Dec-09 05:12N 33°23' E 131°42'0 0.0
2017-Dec-09 04:48N 33°23' E 131°42'0 0.0
2017-Dec-09 04:24N 33°23' E 131°42'0 0.0
2017-Dec-09 04:00N 33°23' E 131°42'0 0.0
2017-Dec-09 03:30N 33°23' E 131°42'0 0.0
2017-Dec-09 03:00N 33°23' E 131°42'0 0.0
2017-Dec-08 23:30N 33°23' E 131°42'0 0.0
2017-Dec-08 22:54N 33°23' E 131°42'0 0.0
2017-Dec-08 22:30N 33°23' E 131°42'0 0.0
2017-Dec-08 22:00N 33°23' E 131°42'0 0.0
2017-Dec-08 18:00N 33°23' E 131°42'0 0.0
2017-Dec-08 17:24N 33°23' E 131°42'0 0.0
2017-Dec-08 15:18N 33°23' E 131°42'0 0.1
2017-Dec-08 14:48N 33°23' E 131°42'0 0.1
2017-Dec-08 14:29N 33°23' E 131°42'0 0.0
2017-Dec-08 13:48N 33°23' E 131°42'0 0.0
2017-Dec-08 13:30N 33°23' E 131°42'0 0.0
2017-Dec-08 10:48N 33°23' E 131°42'0 0.0
2017-Dec-08 10:18N 33°23' E 131°42'0 0.0
2017-Dec-08 09:54N 33°23' E 131°42'7 4.7
2017-Dec-08 08:29N 33°29' E 131°46'2910.7
2017-Dec-08 05:45N 33°57' E 131°55'42 1.7
2017-Dec-07 05:21N 33°16' E 131°40'3 7.5
2017-Dec-07 04:56N 33°20' E 131°40'4 2.8
2017-Dec-07 03:41N 33°23' E 131°42'0 0.0
2017-Dec-07 03:17N 33°23' E 131°42'0 0.0
2017-Dec-07 02:59N 33°23' E 131°42'0 0.0
2017-Dec-07 01:41N 33°23' E 131°42'0 0.0
2017-Dec-07 01:29N 33°23' E 131°42'0 0.0
2017-Dec-07 00:47N 33°23' E 131°42'0 0.0
2017-Dec-07 00:23N 33°23' E 131°42'  
2017-Dec-04 06:39N 34°15' E 135°07'0 0.0
2017-Dec-04 03:51N 34°15' E 135°07'0 0.2
2017-Dec-04 03:30N 34°15' E 135°07'0 0.0
2017-Dec-04 01:27N 34°15' E 135°07'0 0.0
2017-Dec-03 19:18N 34°15' E 135°07'0 0.2
2017-Dec-03 19:00N 34°15' E 135°07'0 0.1
2017-Dec-03 18:24N 34°15' E 135°07'0 0.0
2017-Dec-03 18:00N 34°15' E 135°07'0 0.0
2017-Dec-03 14:09N 34°15' E 135°07'0 0.3
2017-Dec-03 13:57N 34°15' E 135°07'1 2.4
2017-Dec-03 13:30N 34°14' E 135°06'4 9.0
2017-Dec-03 13:00N 34°15' E 135°00'510.3
2017-Dec-03 12:30N 34°20' E 134°60'611.3
2017-Dec-03 12:00N 34°26' E 135°01'611.0
2017-Dec-03 11:30N 34°31' E 135°02'5 9.3
2017-Dec-03 11:00N 34°36' E 135°03'4 8.1
2017-Dec-03 10:30N 34°36' E 134°58'5 9.3
2017-Dec-03 10:00N 34°38' E 134°52'112 2.6
2017-Dec-01 15:22N 33°60' E 132°45'4 9.5
2017-Dec-01 14:58N 33°57' E 132°42'61 3.7
2017-Nov-30 22:16N 33°21' E 131°43'911.8
2017-Nov-30 21:29N 33°28' E 131°49'5011.4
2017-Nov-30 17:06N 33°56' E 132°39'313.6
2017-Nov-30 16:55N 33°57' E 132°42'9711.6
2017-Nov-30 08:33N 34°29' E 134°33'112.8
2017-Nov-30 08:29N 34°29' E 134°34'612.9
2017-Nov-30 08:00N 34°31' E 134°41'713.1
2017-Nov-30 07:28N 34°34' E 134°49'714.0
2017-Nov-30 07:00N 34°37' E 134°56'611.9
2017-Nov-30 06:30N 34°36' E 135°03'611.7
2017-Nov-30 06:00N 34°35' E 135°10'611.9
2017-Nov-30 05:30N 34°34' E 135°17'611.6
2017-Nov-30 05:00N 34°32' E 135°24'1 2.6
2017-Nov-30 04:28N 34°31' E 135°24'0 0.0
2017-Nov-30 03:58N 34°31' E 135°24'0 0.0
2017-Nov-30 03:28N 34°31' E 135°24'0 0.0
2017-Nov-30 02:58N 34°31' E 135°24'0 0.0
2017-Nov-30 02:28N 34°31' E 135°24'0 0.0
2017-Nov-30 01:58N 34°31' E 135°24'0 0.0
2017-Nov-30 01:28N 34°31' E 135°24'0 0.0
2017-Nov-30 00:58N 34°31' E 135°24'0 0.0
2017-Nov-30 00:28N 34°31' E 135°24'0 0.0
2017-Nov-29 23:58N 34°31' E 135°24'0 0.0
2017-Nov-29 23:22N 34°31' E 135°24'0 0.0
2017-Nov-29 22:58N 34°31' E 135°24'2 3.9
2017-Nov-29 22:31N 34°32' E 135°24'  

Dump ship's entire track history